Speedwell, Pennsylvania
Current Conditions -  °F | °C
As of 4:53 AM on Sunday 25 Jan 2015 (Local Time) from KLNS Reporting Station
Overcast Overcast  
Wind Chill: 27°   Ceiling: 5500
Heat Index: 34°   Visibility: 10mi
Dew Point: 26°   Wind: 8mph
Humidity: 73%   Direction: 250°WSW
Pressure: 29.67"   Gusts: NA
Location:  40.1769°N, 76.295°W
Report Text: KLNS 250953Z AUTO 25007KT 10SM OVC055 01/M03 A2967 RMK AO2 SLP051 T00111033
Loading
Personal Weather Stations






























Interactive Weather Map New forecast layout! Learn more

10-Day Weather Forecast

Advertisements
Track Severe Weather on mobile